createdAt,value
2019-01-21T00:00:55.836Z,22.37
2019-01-21T00:03:25.330Z,24.20
2019-01-21T00:05:54.734Z,28.23
2019-01-21T00:08:24.158Z,28.33
2019-01-21T00:10:53.607Z,23.77
2019-01-21T00:13:22.657Z,24.97
2019-01-21T00:15:51.754Z,28.30
2019-01-21T00:18:21.308Z,24.17
2019-01-21T00:20:50.530Z,24.10
2019-01-21T00:23:19.595Z,29.40
2019-01-21T00:25:49.327Z,26.97
2019-01-21T00:28:19.197Z,24.93
2019-01-21T00:30:49.087Z,24.80
2019-01-21T00:33:18.099Z,25.23
2019-01-21T00:35:47.281Z,23.77
2019-01-21T00:38:16.264Z,24.67
2019-01-21T00:40:45.351Z,25.03
2019-01-21T00:43:14.399Z,26.47
2019-01-21T00:45:43.444Z,25.10
2019-01-21T00:48:12.478Z,26.87
2019-01-21T00:50:41.523Z,25.27
2019-01-21T00:53:10.550Z,25.77
2019-01-21T00:55:39.579Z,25.27
2019-01-21T00:58:08.617Z,26.80
2019-01-21T01:00:37.834Z,25.73
2019-01-21T01:03:06.991Z,25.33
2019-01-21T01:05:36.063Z,24.40
2019-01-21T01:08:05.673Z,24.67
2019-01-21T01:10:34.793Z,28.27
2019-01-21T01:13:03.815Z,26.00
2019-01-21T01:15:33.396Z,27.37
2019-01-21T01:18:02.507Z,27.47
2019-01-21T01:20:31.573Z,28.00
2019-01-21T01:23:00.683Z,24.87
2019-01-21T01:25:29.643Z,28.87
2019-01-21T01:27:58.715Z,27.90
2019-01-21T01:30:28.107Z,28.97
2019-01-21T01:32:57.849Z,28.93
2019-01-21T01:35:26.922Z,29.23
2019-01-21T01:37:55.951Z,26.80
2019-01-21T01:40:24.997Z,26.77
2019-01-21T01:42:54.106Z,30.73
2019-01-21T01:45:30.887Z,34.07
2019-01-21T01:48:01.874Z,26.93
2019-01-21T01:50:31.007Z,30.17
2019-01-21T01:53:00.543Z,28.17
2019-01-21T01:55:33.271Z,32.33
2019-01-21T01:58:04.151Z,28.80
2019-01-21T02:00:33.301Z,28.13
2019-01-21T02:03:02.391Z,28.93
2019-01-21T02:05:31.557Z,31.10
2019-01-21T02:08:00.607Z,30.37
2019-01-21T02:10:30.019Z,28.07
2019-01-21T02:12:59.353Z,30.20
2019-01-21T02:15:28.361Z,29.63
2019-01-21T02:17:57.423Z,29.60
2019-01-21T02:20:26.462Z,26.67
2019-01-21T02:22:58.999Z,32.17
2019-01-21T02:25:51.520Z,31.73
2019-01-21T02:28:50.815Z,29.30
2019-01-21T02:31:56.385Z,25.50
2019-01-21T02:34:52.575Z,29.40
2019-01-21T02:37:56.643Z,27.63
2019-01-21T02:40:46.983Z,26.23
2019-01-21T02:44:14.489Z,28.53
2019-01-21T02:47:18.399Z,26.67
2019-01-21T02:50:12.449Z,29.13
2019-01-21T02:52:51.067Z,31.17
2019-01-21T02:55:50.043Z,26.73
2019-01-21T02:59:18.141Z,27.20
2019-01-21T03:02:18.469Z,29.87
2019-01-21T03:05:50.048Z,27.47
2019-01-21T03:08:41.038Z,31.20
2019-01-21T03:11:40.755Z,27.57
2019-01-21T03:14:49.033Z,27.83
2019-01-21T03:17:44.091Z,28.60
2019-01-21T03:20:43.332Z,26.20
2019-01-21T03:24:08.102Z,29.23
2019-01-21T03:27:06.455Z,27.47
2019-01-21T03:30:14.366Z,30.57
2019-01-21T03:33:28.115Z,34.27
2019-01-21T03:36:16.611Z,33.70
2019-01-21T03:39:11.304Z,27.83
2019-01-21T03:42:07.745Z,29.30
2019-01-21T03:45:16.868Z,30.17
2019-01-21T03:48:05.838Z,30.00
2019-01-21T03:51:08.671Z,26.80
2019-01-21T03:54:04.680Z,31.43
2019-01-21T03:56:50.921Z,28.73
2019-01-21T03:59:42.458Z,29.77
2019-01-21T04:02:52.121Z,29.53
2019-01-21T04:05:32.665Z,30.03
2019-01-21T04:08:33.695Z,28.70
2019-01-21T04:11:35.479Z,30.37
2019-01-21T04:14:49.667Z,28.73
2019-01-21T04:18:15.257Z,28.27
2019-01-21T04:21:30.637Z,29.97
2019-01-21T04:24:37.384Z,25.57
2019-01-21T04:27:19.687Z,30.43
2019-01-21T04:30:09.598Z,32.13
2019-01-21T04:33:28.911Z,33.73
2019-01-21T04:36:35.550Z,30.07
2019-01-21T04:39:19.933Z,28.23
2019-01-21T04:42:28.581Z,27.67
2019-01-21T04:45:28.765Z,28.97
2019-01-21T04:48:06.771Z,28.43
2019-01-21T04:51:18.881Z,25.53
2019-01-21T04:54:28.519Z,27.53
2019-01-21T04:57:38.717Z,31.50
2019-01-21T05:00:18.841Z,25.93
2019-01-21T05:03:44.226Z,25.43
2019-01-21T05:06:38.296Z,28.90
2019-01-21T05:10:00.225Z,28.07
2019-01-21T05:12:41.357Z,28.60
2019-01-21T05:15:38.021Z,29.33
2019-01-21T05:19:00.533Z,30.37
2019-01-21T05:22:02.623Z,26.30
2019-01-21T05:25:28.417Z,30.20
2019-01-21T05:29:00.321Z,32.73
2019-01-21T05:31:57.034Z,29.40
2019-01-21T05:34:52.540Z,36.93
2019-01-21T05:37:39.158Z,34.47
2019-01-21T05:40:35.171Z,31.83
2019-01-21T05:43:50.175Z,30.87
2019-01-21T05:46:59.009Z,33.80
2019-01-21T05:50:11.795Z,33.90
2019-01-21T05:53:01.639Z,32.40
2019-01-21T05:55:51.461Z,31.77
2019-01-21T05:58:49.126Z,29.77
2019-01-21T06:01:48.554Z,28.90
2019-01-21T06:04:48.801Z,27.47
2019-01-21T06:08:08.454Z,29.77
2019-01-21T06:11:18.879Z,31.47
2019-01-21T06:14:40.108Z,29.90
2019-01-21T06:17:34.408Z,30.53
2019-01-21T06:20:28.481Z,29.80
2019-01-21T06:23:40.576Z,34.30
2019-01-21T06:26:57.153Z,30.77
2019-01-21T06:30:08.606Z,30.47
2019-01-21T06:33:30.780Z,29.07
2019-01-21T06:36:44.012Z,28.07
2019-01-21T06:39:36.728Z,36.17
2019-01-21T06:42:44.217Z,31.90
2019-01-21T06:45:57.705Z,30.90
2019-01-21T06:48:51.585Z,30.73
2019-01-21T06:52:02.790Z,30.80
2019-01-21T06:54:49.025Z,31.67
2019-01-21T06:57:47.940Z,31.43
2019-01-21T07:00:55.255Z,26.70
2019-01-21T07:03:55.780Z,30.10
2019-01-21T07:07:21.331Z,27.93
2019-01-21T07:10:28.801Z,29.13
2019-01-21T07:13:41.968Z,30.60
2019-01-21T07:16:48.867Z,29.77
2019-01-21T07:19:40.761Z,28.57
2019-01-21T07:22:31.066Z,30.47
2019-01-21T07:25:36.309Z,33.67
2019-01-21T07:28:14.240Z,37.30
2019-01-21T07:31:23.374Z,33.13
2019-01-21T07:34:18.482Z,31.80
2019-01-21T07:37:17.137Z,30.87
2019-01-21T07:40:19.311Z,29.03
2019-01-21T07:43:47.728Z,33.00
2019-01-21T07:46:58.009Z,31.37
2019-01-21T07:49:55.546Z,32.80
2019-01-21T07:53:03.478Z,32.30
2019-01-21T07:56:32.067Z,36.30
2019-01-21T07:59:51.192Z,33.30
2019-01-21T08:03:09.521Z,35.20
2019-01-21T08:06:11.509Z,37.90
2019-01-21T08:09:05.247Z,34.90
2019-01-21T08:11:57.033Z,34.10
2019-01-21T08:14:46.186Z,36.03
2019-01-21T08:17:56.053Z,33.67
2019-01-21T08:21:02.054Z,34.13
2019-01-21T08:24:14.415Z,35.70
2019-01-21T08:27:07.487Z,33.77
2019-01-21T08:29:51.649Z,35.47
2019-01-21T08:32:47.844Z,34.17
2019-01-21T08:36:03.941Z,33.77
2019-01-21T08:39:17.961Z,29.93
2019-01-21T08:42:23.524Z,34.20
2019-01-21T08:45:10.917Z,33.43
2019-01-21T08:48:14.378Z,33.90
2019-01-21T08:51:24.664Z,36.23
2019-01-21T08:54:28.808Z,33.83
2019-01-21T08:57:34.298Z,28.20
2019-01-21T09:00:17.664Z,33.50
2019-01-21T09:03:28.442Z,29.63
2019-01-21T09:06:14.690Z,29.83
2019-01-21T09:09:19.539Z,27.43
2019-01-21T09:12:10.662Z,30.57
2019-01-21T09:15:18.898Z,26.23
2019-01-21T09:18:00.683Z,29.57
2019-01-21T09:21:02.502Z,25.73
2019-01-21T09:24:10.158Z,25.90
2019-01-21T09:27:15.104Z,26.90
2019-01-21T09:30:20.072Z,25.47
2019-01-21T09:33:30.703Z,26.07
2019-01-21T09:36:41.004Z,26.27
2019-01-21T09:39:54.032Z,31.20
2019-01-21T09:42:49.642Z,27.50
2019-01-21T09:46:02.388Z,28.47
2019-01-21T09:48:29.942Z,28.30
2019-01-21T09:51:04.140Z,25.67
2019-01-21T09:53:33.994Z,28.80
2019-01-21T09:56:03.734Z,31.20
2019-01-21T09:58:34.906Z,29.40
2019-01-21T10:01:04.360Z,33.07
2019-01-21T10:03:33.746Z,31.90
2019-01-21T10:06:10.299Z,36.43
2019-01-21T10:08:52.664Z,36.40
2019-01-21T10:12:06.476Z,38.60
2019-01-21T10:15:12.148Z,36.17
2019-01-21T10:18:10.414Z,38.77
2019-01-21T10:21:02.836Z,37.03
2019-01-21T10:24:13.594Z,37.17
2019-01-21T10:27:12.828Z,41.98
2019-01-21T10:30:24.915Z,32.60
2019-01-21T10:33:59.458Z,31.60
2019-01-21T10:37:18.237Z,36.15
2019-01-21T10:40:25.486Z,33.48
2019-01-21T10:43:42.045Z,37.50
2019-01-21T10:47:06.999Z,36.60
2019-01-21T10:50:08.287Z,32.05
2019-01-21T10:53:14.797Z,37.73
2019-01-21T10:56:25.305Z,29.37
2019-01-21T10:59:44.905Z,31.10
2019-01-21T11:03:03.261Z,30.95
2019-01-21T11:06:05.973Z,30.15
2019-01-21T11:08:59.297Z,36.85
2019-01-21T11:11:59.122Z,28.02
2019-01-21T11:14:51.256Z,28.95
2019-01-21T11:17:51.776Z,29.92
2019-01-21T11:21:01.313Z,29.20
2019-01-21T11:24:10.105Z,28.45
2019-01-21T11:27:06.268Z,29.27
2019-01-21T11:30:19.032Z,28.50
2019-01-21T11:33:33.289Z,29.20
2019-01-21T11:36:58.652Z,32.15
2019-01-21T11:40:09.495Z,28.83
2019-01-21T11:42:58.448Z,27.95
2019-01-21T11:46:05.752Z,31.05
2019-01-21T11:49:13.072Z,28.15
2019-01-21T11:52:17.697Z,30.40
2019-01-21T11:55:22.133Z,29.18
2019-01-21T11:58:38.708Z,29.87
2019-01-21T12:01:43.521Z,28.50
2019-01-21T12:04:34.454Z,30.85
2019-01-21T12:07:43.368Z,30.52
2019-01-21T12:10:38.987Z,33.58
2019-01-21T12:13:40.813Z,30.68
2019-01-21T12:16:55.736Z,31.60
2019-01-21T12:19:44.362Z,28.70
2019-01-21T12:22:58.280Z,30.80
2019-01-21T12:25:34.736Z,31.97
2019-01-21T12:28:39.918Z,28.07
2019-01-21T12:31:26.740Z,35.08
2019-01-21T12:34:17.222Z,29.30
2019-01-21T12:37:26.292Z,29.75
2019-01-21T12:40:28.814Z,30.88
2019-01-21T12:43:45.591Z,31.60
2019-01-21T12:46:47.930Z,29.97
2019-01-21T12:50:01.688Z,30.57
2019-01-21T12:52:49.304Z,33.77
2019-01-21T12:56:01.755Z,29.13
2019-01-21T12:58:41.614Z,26.93
2019-01-21T13:01:38.535Z,33.37
2019-01-21T13:04:48.760Z,30.13
2019-01-21T13:08:29.362Z,32.63
2019-01-21T13:11:19.415Z,31.00
2019-01-21T13:14:13.830Z,33.23
2019-01-21T13:17:23.391Z,30.57
2019-01-21T13:20:35.883Z,35.07
2019-01-21T13:23:45.229Z,24.97
2019-01-21T13:26:41.566Z,24.17
2019-01-21T13:29:35.398Z,21.80
2019-01-21T13:32:36.934Z,24.57
2019-01-21T13:35:29.303Z,19.87
2019-01-21T13:38:33.746Z,22.77
2019-01-21T13:41:20.914Z,22.80
2019-01-21T13:44:17.230Z,24.80
2019-01-21T13:47:24.557Z,27.47
2019-01-21T13:50:03.531Z,29.47
2019-01-21T13:53:15.996Z,32.37
2019-01-21T13:56:21.231Z,31.40
2019-01-21T13:59:21.571Z,33.80
2019-01-21T14:02:11.416Z,34.27
2019-01-21T14:05:24.276Z,29.20
2019-01-21T14:08:11.668Z,36.10
2019-01-21T14:11:45.228Z,31.80
2019-01-21T14:14:48.832Z,28.17
2019-01-21T14:18:15.292Z,31.93
2019-01-21T14:20:59.644Z,29.23
2019-01-21T14:24:12.471Z,31.40
2019-01-21T14:27:04.170Z,32.97
2019-01-21T14:30:23.221Z,34.60
2019-01-21T14:33:27.372Z,42.80
2019-01-21T14:36:41.460Z,31.47
2019-01-21T14:39:39.534Z,32.07
2019-01-21T14:43:08.556Z,32.00
2019-01-21T14:45:58.276Z,31.40
2019-01-21T14:49:26.373Z,31.77
2019-01-21T14:52:35.747Z,33.07
2019-01-21T14:55:46.474Z,28.23
2019-01-21T14:59:11.876Z,31.63
2019-01-21T15:02:03.080Z,26.23
2019-01-21T15:05:02.380Z,23.77
2019-01-21T15:08:11.351Z,25.33
2019-01-21T15:11:24.941Z,22.70
2019-01-21T15:14:18.208Z,25.40
2019-01-21T15:17:49.230Z,24.17
2019-01-21T15:20:31.760Z,23.23
2019-01-21T15:23:45.214Z,29.90
2019-01-21T15:26:42.801Z,28.40
2019-01-21T15:29:48.793Z,30.97
2019-01-21T15:32:58.732Z,31.83
2019-01-21T15:36:09.874Z,29.03
2019-01-21T15:39:19.791Z,30.20
2019-01-21T15:42:25.501Z,32.60
2019-01-21T15:45:26.743Z,32.63
2019-01-21T15:48:28.339Z,30.80
2019-01-21T15:51:50.545Z,26.03
2019-01-21T15:54:35.211Z,23.87
2019-01-21T15:57:35.265Z,29.10
2019-01-21T16:00:41.144Z,26.50
2019-01-21T16:03:52.951Z,26.90
2019-01-21T16:06:57.419Z,30.23
2019-01-21T16:09:46.318Z,30.63
2019-01-21T16:12:43.148Z,29.93
2019-01-21T16:15:56.044Z,33.03
2019-01-21T16:18:35.263Z,31.30
2019-01-21T16:21:39.933Z,32.00
2019-01-21T16:24:49.028Z,34.63
2019-01-21T16:27:31.223Z,34.73
2019-01-21T16:30:06.601Z,34.10
2019-01-21T16:33:21.109Z,36.43
2019-01-21T16:36:31.224Z,30.33
2019-01-21T16:39:10.960Z,31.27
2019-01-21T16:42:13.717Z,37.53
2019-01-21T16:44:43.662Z,45.23
2019-01-21T16:47:12.713Z,34.20
2019-01-21T16:49:41.806Z,37.77
2019-01-21T16:52:11.150Z,38.00
2019-01-21T16:54:40.493Z,34.97
2019-01-21T16:57:09.876Z,41.27
2019-01-21T16:59:39.081Z,41.37
2019-01-21T17:02:08.277Z,41.93
2019-01-21T17:04:37.370Z,38.77
2019-01-21T17:07:06.707Z,37.80
2019-01-21T17:09:35.953Z,35.73
2019-01-21T17:12:05.400Z,35.23
2019-01-21T17:14:34.536Z,36.93
2019-01-21T17:17:03.926Z,37.20
2019-01-21T17:19:33.252Z,42.87
2019-01-21T17:22:02.319Z,39.07
2019-01-21T17:24:31.678Z,45.47
2019-01-21T17:27:00.730Z,43.43
2019-01-21T17:29:29.808Z,45.70
2019-01-21T17:31:58.870Z,46.53
2019-01-21T17:34:27.949Z,44.27
2019-01-21T17:36:57.000Z,48.93
2019-01-21T17:39:26.044Z,50.17
2019-01-21T17:41:55.090Z,51.10
2019-01-21T17:44:24.119Z,58.17
2019-01-21T17:46:53.463Z,56.13
2019-01-21T17:49:22.808Z,58.67
2019-01-21T17:51:51.947Z,53.13
2019-01-21T17:54:20.964Z,53.53
2019-01-21T17:56:50.068Z,50.73
2019-01-21T17:59:19.096Z,51.60
2019-01-21T18:01:48.394Z,56.80
2019-01-21T18:04:17.541Z,54.17
2019-01-21T18:06:46.672Z,50.30
2019-01-21T18:09:15.715Z,52.93
2019-01-21T18:11:44.812Z,47.33
2019-01-21T18:14:13.978Z,51.50
2019-01-21T18:16:43.044Z,55.97
2019-01-21T18:19:13.596Z,61.67
2019-01-21T18:21:43.103Z,60.43
2019-01-21T18:24:12.176Z,49.37
2019-01-21T18:26:41.501Z,55.57
2019-01-21T18:29:10.800Z,50.77
2019-01-21T18:31:39.853Z,56.40
2019-01-21T18:34:08.861Z,55.57
2019-01-21T18:36:38.254Z,49.50
2019-01-21T18:39:11.699Z,50.40
2019-01-21T18:41:40.766Z,54.50
2019-01-21T18:44:09.860Z,51.20
2019-01-21T18:46:38.921Z,55.77
2019-01-21T18:49:07.980Z,53.90
2019-01-21T18:51:37.075Z,54.37
2019-01-21T18:54:06.127Z,55.90
2019-01-21T18:56:35.931Z,59.23
2019-01-21T18:59:05.165Z,57.00
2019-01-21T19:01:34.557Z,55.40
2019-01-21T19:04:03.697Z,52.73
2019-01-21T19:06:32.751Z,60.30
2019-01-21T19:09:02.465Z,54.23
2019-01-21T19:11:31.513Z,50.90
2019-01-21T19:14:00.534Z,60.47
2019-01-21T19:16:29.945Z,52.17
2019-01-21T19:18:58.995Z,59.33
2019-01-21T19:21:28.090Z,55.30
2019-01-21T19:23:57.572Z,50.20
2019-01-21T19:26:26.590Z,51.50
2019-01-21T19:28:55.612Z,56.87
2019-01-21T19:31:24.672Z,60.33
2019-01-21T19:33:54.200Z,63.83
2019-01-21T19:36:23.284Z,57.97
2019-01-21T19:38:52.644Z,52.93
2019-01-21T19:41:21.690Z,58.73
2019-01-21T19:43:50.802Z,47.63
2019-01-21T19:46:19.860Z,50.00
2019-01-21T19:48:49.302Z,50.20
2019-01-21T19:51:18.639Z,53.20
2019-01-21T19:53:47.687Z,47.70
2019-01-21T19:56:17.030Z,46.87
2019-01-21T19:58:46.143Z,50.37
2019-01-21T20:01:15.201Z,48.10
2019-01-21T20:03:44.296Z,52.33
2019-01-21T20:06:13.316Z,48.43
2019-01-21T20:08:42.692Z,47.50
2019-01-21T20:11:11.742Z,48.27
2019-01-21T20:13:40.901Z,54.07
2019-01-21T20:16:10.247Z,53.00
2019-01-21T20:18:39.308Z,54.57
2019-01-21T20:21:08.322Z,52.10
2019-01-21T20:23:37.603Z,61.87
2019-01-21T20:26:06.618Z,53.77
2019-01-21T20:28:35.942Z,52.70
2019-01-21T20:31:05.802Z,57.10
2019-01-21T20:33:35.201Z,53.93
2019-01-21T20:36:04.361Z,52.13
2019-01-21T20:38:33.413Z,49.67
2019-01-21T20:41:02.524Z,52.13
2019-01-21T20:43:32.135Z,50.77
2019-01-21T20:46:01.233Z,55.90
2019-01-21T20:48:30.290Z,48.70
2019-01-21T20:50:59.529Z,50.33
2019-01-21T20:53:28.842Z,45.87
2019-01-21T20:55:58.171Z,48.07
2019-01-21T20:58:27.558Z,49.90
2019-01-21T21:00:56.613Z,51.20
2019-01-21T21:03:25.854Z,49.77
2019-01-21T21:05:55.244Z,52.50
2019-01-21T21:08:24.639Z,53.80
2019-01-21T21:10:54.482Z,56.40
2019-01-21T21:13:24.069Z,47.60
2019-01-21T21:15:54.430Z,53.27
2019-01-21T21:18:23.770Z,49.67
2019-01-21T21:20:53.057Z,50.70
2019-01-21T21:23:22.721Z,51.87
2019-01-21T21:25:52.263Z,52.23
2019-01-21T21:28:21.490Z,48.70
2019-01-21T21:30:50.875Z,51.00
2019-01-21T21:33:20.051Z,49.83
2019-01-21T21:35:50.017Z,47.70
2019-01-21T21:38:19.192Z,47.60
2019-01-21T21:40:48.533Z,48.87
2019-01-21T21:43:17.978Z,48.10
2019-01-21T21:45:47.106Z,46.37
2019-01-21T21:48:16.587Z,43.87
2019-01-21T21:50:45.743Z,46.30
2019-01-21T21:53:14.971Z,44.50
2019-01-21T21:55:44.167Z,47.70
2019-01-21T21:58:14.587Z,44.07
2019-01-21T22:00:43.772Z,50.50
2019-01-21T22:03:12.954Z,49.00
2019-01-21T22:05:42.560Z,49.03
2019-01-21T22:08:11.749Z,47.37
2019-01-21T22:10:40.987Z,45.30
2019-01-21T22:13:10.618Z,50.13
2019-01-21T22:15:39.781Z,48.03
2019-01-21T22:18:08.944Z,52.13
2019-01-21T22:20:38.422Z,51.33
2019-01-21T22:23:07.729Z,48.90
2019-01-21T22:25:37.225Z,49.50
2019-01-21T22:28:06.505Z,45.63
2019-01-21T22:30:35.592Z,49.83
2019-01-21T22:33:04.703Z,49.13
2019-01-21T22:35:34.389Z,51.27
2019-01-21T22:38:04.269Z,49.53
2019-01-21T22:40:33.679Z,49.97
2019-01-21T22:43:03.106Z,47.47
2019-01-21T22:45:32.742Z,48.33
2019-01-21T22:48:01.853Z,48.50
2019-01-21T22:50:30.879Z,48.30
2019-01-21T22:53:00.269Z,49.67
2019-01-21T22:55:29.295Z,47.83
2019-01-21T22:57:58.365Z,51.20
2019-01-21T23:00:53.125Z,48.30
2019-01-21T23:03:22.653Z,49.77
2019-01-21T23:05:51.659Z,51.53
2019-01-21T23:08:21.064Z,51.73
2019-01-21T23:10:50.231Z,51.43
2019-01-21T23:13:19.327Z,50.97
2019-01-21T23:15:48.445Z,50.40
2019-01-21T23:18:17.851Z,53.37
2019-01-21T23:20:46.915Z,46.73
2019-01-21T23:23:16.055Z,50.63
2019-01-21T23:25:45.060Z,53.20
2019-01-21T23:28:14.105Z,49.87
2019-01-21T23:30:43.148Z,50.53
2019-01-21T23:33:12.477Z,51.77
2019-01-21T23:35:41.571Z,50.57
2019-01-21T23:38:11.073Z,49.93
2019-01-21T23:40:40.086Z,53.83
2019-01-21T23:43:09.429Z,50.23
2019-01-21T23:45:38.425Z,48.90
2019-01-21T23:48:07.854Z,50.67
2019-01-21T23:50:37.165Z,58.57
2019-01-21T23:53:06.241Z,54.90
2019-01-21T23:55:35.576Z,56.20
2019-01-21T23:58:04.819Z,59.67
